Time;durP1;ratioP1;P1;durP2;ratioP2;P2;SDS_P1;SDS_P2;PMS_P1;PMS_P2;Temp;Humidity;BMP_temperature;BMP_pressure;BME280_temperature;BME280_humidity;BME280_pressure;Samples;Min_cycle;Max_cycle;Signal;HPM_P1;HPM_P2
2021/12/27 03:23:24;;;;;;;852.30;49.85;;;;;;;3.94;100.00;93604.41;5103304;22;20176;-84
2021/12/27 03:25:51;;;;;;;804.53;56.08;;;;;;;3.72;100.00;93605.22;5072366;28;20139;-83
2021/12/27 03:28:17;;;;;;;1006.72;82.78;;;;;;;3.48;100.00;93607.28;5080236;28;20434;-84
2021/12/27 03:30:43;;;;;;;767.10;48.20;;;;;;;3.43;100.00;93615.75;5080740;28;20032;-83
2021/12/27 03:33:10;;;;;;;35.42;9.10;;;;;;;3.72;100.00;93609.63;5080031;28;20043;-83
2021/12/27 03:35:38;;;;;;;20.20;9.38;;;;;;;3.88;100.00;93605.41;5089870;28;20028;-83
2021/12/27 03:38:07;;;;;;;32.55;9.77;;;;;;;3.98;100.00;93605.47;5098440;28;20111;-83
2021/12/27 03:40:33;;;;;;;170.57;14.95;;;;;;;3.99;100.00;93616.66;5080281;28;20039;-83
2021/12/27 03:42:59;;;;;;;31.30;9.45;;;;;;;4.02;100.00;93611.75;5080054;28;20040;-83
2021/12/27 03:45:39;;;;;;;265.52;17.80;;;;;;;3.82;100.00;93607.91;5098504;28;20083;-83
2021/12/27 03:48:06;;;;;;;123.72;13.65;;;;;;;3.75;100.00;93612.53;5080442;28;20115;-83
2021/12/27 03:50:39;;;;;;;296.40;19.60;;;;;;;3.62;100.00;93613.66;5063521;28;20028;-83
2021/12/27 03:53:06;;;;;;;142.35;15.30;;;;;;;3.88;100.00;93606.16;5079361;28;20066;-83
2021/12/27 03:55:31;;;;;;;495.30;27.35;;;;;;;3.80;100.00;93606.59;5080103;28;20428;-83
2021/12/27 03:58:07;;;;;;;103.68;11.05;;;;;;;3.81;100.00;93606.34;5098167;28;20038;-83
2021/12/27 04:00:47;;;;;;;119.72;12.40;;;;;;;3.80;100.00;93602.19;5081560;28;20078;-83
2021/12/27 04:03:14;;;;;;;464.85;25.27;;;;;;;3.88;100.00;93597.63;5081567;28;20028;-83
2021/12/27 04:05:40;;;;;;;21.38;9.93;;;;;;;4.00;100.00;93592.28;5080032;28;20035;-83
2021/12/27 04:08:09;;;;;;;403.92;26.08;;;;;;;3.52;100.00;93587.66;5078824;28;20024;-83
2021/12/27 04:10:37;;;;;;;475.27;24.88;;;;;;;3.54;100.00;93588.19;5080472;28;20436;-83
2021/12/27 04:13:03;;;;;;;737.15;38.72;;;;;;;3.60;100.00;93586.44;5079587;28;20035;-83
2021/12/27 04:15:29;;;;;;;18.00;8.68;;;;;;;3.66;100.00;93580.28;5079323;28;20499;-83
2021/12/27 04:17:54;;;;;;;79.82;11.85;;;;;;;3.60;100.00;93583.84;5097762;28;20105;-83
2021/12/27 04:20:21;;;;;;;164.95;11.88;;;;;;;3.53;100.00;93587.41;5097735;28;20092;-83
2021/12/27 04:22:47;;;;;;;30.33;8.23;;;;;;;3.70;100.00;93588.34;5078781;28;20071;-83
2021/12/27 04:25:13;;;;;;;160.13;12.95;;;;;;;3.85;100.00;93585.94;5079718;28;20456;-83
2021/12/27 04:27:39;;;;;;;51.17;8.30;;;;;;;3.82;100.00;93586.41;5079668;28;20032;-83
2021/12/27 04:30:04;;;;;;;138.65;10.80;;;;;;;3.81;100.00;93582.25;5097647;28;20035;-83
2021/12/27 04:32:30;;;;;;;430.42;27.00;;;;;;;3.51;100.00;93581.69;5062326;28;20032;-83
2021/12/27 04:34:55;;;;;;;13.88;6.95;;;;;;;3.51;100.00;93581.69;5097616;28;20032;-83
2021/12/27 04:37:21;;;;;;;19.60;7.72;;;;;;;3.73;100.00;93586.06;5079485;28;20036;-83
2021/12/27 04:39:46;;;;;;;52.58;8.40;;;;;;;3.80;100.00;93589.25;5079105;28;20040;-83
2021/12/27 04:42:12;;;;;;;28.65;7.25;;;;;;;3.65;100.00;93584.66;5096638;28;20028;-83
2021/12/27 04:44:37;;;;;;;645.08;35.88;;;;;;;3.52;100.00;93587.66;5078983;28;20043;-83
2021/12/27 04:47:03;;;;;;;671.13;42.97;;;;;;;3.15;100.00;93586.41;5097110;28;20028;-83
2021/12/27 04:49:30;;;;;;;738.40;46.40;;;;;;;3.02;100.00;93597.13;5097341;28;20032;-83
2021/12/27 04:51:55;;;;;;;123.43;11.30;;;;;;;3.35;100.00;93600.66;5096906;28;20031;-83
2021/12/27 04:54:21;;;;;;;127.90;10.82;;;;;;;3.43;100.00;93605.41;5097283;28;20035;-83
2021/12/27 04:56:47;;;;;;;90.22;8.38;;;;;;;3.52;100.00;93603.97;5079136;28;20035;-83
2021/12/27 04:59:12;;;;;;;422.90;22.85;;;;;;;3.44;100.00;93606.19;5063530;28;20082;-83
2021/12/27 05:01:38;;;;;;;180.35;11.35;;;;;;;3.13;100.00;93598.81;5077171;28;20440;-83
2021/12/27 05:04:04;;;;;;;17.88;6.90;;;;;;;3.40;100.00;93595.53;5096968;28;20036;-83
2021/12/27 05:06:29;;;;;;;43.42;6.60;;;;;;;3.51;100.00;93599.00;5096815;28;20024;-83
2021/12/27 05:08:56;;;;;;;134.05;7.68;;;;;;;3.56;100.00;93595.69;5078947;28;20040;-83
2021/12/27 05:11:25;;;;;;;263.90;14.68;;;;;;;3.56;100.00;93606.06;5079052;28;20352;-83
2021/12/27 05:13:57;;;;;;;16.15;5.10;;;;;;;3.68;100.00;93594.56;5061843;28;20039;-83
2021/12/27 05:16:22;;;;;;;187.50;11.38;;;;;;;3.52;100.00;93600.59;5078775;28;20102;-83
2021/12/27 05:18:47;;;;;;;160.82;9.95;;;;;;;3.50;100.00;93598.25;5078986;28;20032;-83
2021/12/27 05:21:13;;;;;;;302.55;14.35;;;;;;;3.21;100.00;93603.59;5078889;28;20043;-83
2021/12/27 05:23:38;;;;;;;130.82;8.25;;;;;;;3.28;100.00;93600.03;5078436;28;20040;-83
2021/12/27 05:26:04;;;;;;;268.42;12.27;;;;;;;3.25;100.00;93596.91;5096921;28;20372;-83
2021/12/27 05:28:30;;;;;;;313.10;14.73;;;;;;;2.92;100.00;93595.97;5080398;28;20098;-83
2021/12/27 05:30:55;;;;;;;358.08;16.02;;;;;;;2.87;100.00;93602.88;5082657;28;20066;-83
2021/12/27 05:33:21;;;;;;;266.15;13.75;;;;;;;2.77;100.00;93606.88;5082172;28;20067;-83
2021/12/27 05:35:47;;;;;;;212.23;10.20;;;;;;;2.81;100.00;93607.19;5082880;28;20066;-83
2021/12/27 05:38:13;;;;;;;190.40;9.73;;;;;;;2.95;100.00;93611.00;5082915;28;20038;-83
2021/12/27 05:40:39;;;;;;;81.85;6.93;;;;;;;2.91;100.00;93606.53;5082396;28;20131;-83
2021/12/27 05:43:06;;;;;;;103.57;8.15;;;;;;;2.94;100.00;93613.81;5100475;28;20495;-83
2021/12/27 05:45:33;;;;;;;56.10;5.95;;;;;;;3.11;100.00;93612.00;5066046;28;20077;-83
2021/12/27 05:47:58;;;;;;;180.80;9.80;;;;;;;2.87;100.00;93601.09;5082497;28;20034;-83
2021/12/27 05:50:24;;;;;;;376.75;17.20;;;;;;;2.56;100.00;93608.38;5102867;28;20035;-83
2021/12/27 05:52:49;;;;;;;92.07;6.82;;;;;;;2.63;100.00;93608.22;5085201;28;20431;-83
2021/12/27 05:55:15;;;;;;;160.18;10.02;;;;;;;2.69;100.00;93602.88;5102562;28;20051;-83
2021/12/27 05:57:40;;;;;;;234.43;13.30;;;;;;;2.43;100.00;93608.69;5102542;28;20036;-83
2021/12/27 06:00:08;;;;;;;136.65;9.70;;;;;;;2.45;100.00;93607.44;5102747;28;20020;-83
2021/12/27 06:02:33;;;;;;;170.45;10.63;;;;;;;2.43;100.00;93608.69;5120382;28;20050;-83
2021/12/27 06:04:58;;;;;;;236.35;11.68;;;;;;;2.38;100.00;93620.50;5102660;28;20023;-83
2021/12/27 06:07:24;;;;;;;294.35;16.65;;;;;;;2.55;100.00;93614.56;5102597;28;20039;-83
2021/12/27 06:09:50;;;;;;;19.30;4.97;;;;;;;2.62;100.00;93622.16;5120805;28;20439;-83
2021/12/27 06:12:15;;;;;;;65.22;7.70;;;;;;;2.64;100.00;93630.47;5101638;28;20019;-83
2021/12/27 06:14:40;;;;;;;69.60;6.85;;;;;;;2.57;100.00;93635.78;5120671;28;20059;-83
2021/12/27 06:17:06;;;;;;;148.25;11.10;;;;;;;2.18;100.00;93635.69;5102170;28;20447;-83
2021/12/27 06:19:32;;;;;;;219.48;11.77;;;;;;;1.95;100.00;93632.19;5102049;28;20043;-83
2021/12/27 06:21:57;;;;;;;43.10;5.38;;;;;;;2.20;100.00;93634.44;5101539;28;20031;-83
2021/12/27 06:24:22;;;;;;;6.20;3.72;;;;;;;2.34;100.00;93634.94;5101401;28;20474;-83
2021/12/27 06:26:48;;;;;;;15.35;3.72;;;;;;;2.49;100.00;93636.19;5102307;28;20059;-83
2021/12/27 06:29:14;;;;;;;192.27;11.43;;;;;;;2.38;100.00;93636.03;5101938;28;20176;-83
2021/12/27 06:31:39;;;;;;;150.90;9.85;;;;;;;2.12;100.00;93645.16;5101505;28;20019;-83
2021/12/27 06:34:05;;;;;;;119.25;9.38;;;;;;;1.97;100.00;93641.28;5101796;28;20032;-83
2021/12/27 06:36:30;;;;;;;255.15;15.30;;;;;;;1.63;100.00;93640.38;5084784;28;20519;-83
2021/12/27 06:38:56;;;;;;;100.78;6.32;;;;;;;1.83;100.00;93648.50;5101382;28;20027;-83
2021/12/27 06:41:24;;;;;;;151.18;9.00;;;;;;;1.97;100.00;93650.81;5101909;28;20028;-83
2021/12/27 06:43:51;;;;;;;201.98;10.00;;;;;;;1.81;100.00;93654.94;5084898;28;20024;-83
2021/12/27 06:46:16;;;;;;;290.08;14.90;;;;;;;1.78;100.00;93657.97;5101928;28;20027;-83
2021/12/27 06:48:42;;;;;;;72.00;6.80;;;;;;;1.78;100.00;93660.53;5089346;28;20089;-83
2021/12/27 06:51:09;;;;;;;35.70;4.78;;;;;;;2.00;100.00;93667.66;5081159;28;20527;-83
2021/12/27 06:53:35;;;;;;;14.52;4.15;;;;;;;2.20;100.00;93672.44;5080895;28;20043;-83
2021/12/27 06:56:02;;;;;;;51.65;5.97;;;;;;;2.37;100.00;93675.81;5081084;28;20432;-83
2021/12/27 06:58:27;;;;;;;24.10;4.53;;;;;;;2.44;100.00;93678.28;5081381;28;20398;-83
2021/12/27 07:00:53;;;;;;;160.80;9.75;;;;;;;2.24;100.00;93679.50;5081248;28;20032;-83
2021/12/27 07:03:19;;;;;;;5.28;3.38;;;;;;;2.15;100.00;93673.13;5081015;28;20085;-83
2021/12/27 07:05:44;;;;;;;38.03;4.57;;;;;;;2.19;100.00;93666.47;5080937;28;20039;-83
2021/12/27 07:08:10;;;;;;;164.68;9.35;;;;;;;1.81;100.00;93671.22;5081270;28;20090;-83
2021/12/27 07:10:35;;;;;;;20.77;4.03;;;;;;;2.08;100.00;93672.47;5081154;28;20036;-83
2021/12/27 07:13:03;;;;;;;221.48;14.05;;;;;;;1.69;100.00;93671.25;5063642;28;20032;-83
2021/12/27 07:15:29;;;;;;;20.10;3.83;;;;;;;2.01;100.00;93671.81;5081422;28;20054;-84
2021/12/27 07:17:55;;;;;;;62.90;6.05;;;;;;;2.24;100.00;93666.56;5081084;28;20063;-83
2021/12/27 07:20:21;;;;;;;175.60;6.57;;;;;;;2.20;100.00;93657.69;5080743;28;20063;-83
2021/12/27 07:22:47;;;;;;;39.47;4.03;;;;;;;2.31;100.00;93648.34;5083527;28;20024;-83
2021/12/27 07:25:12;;;;;;;206.27;10.73;;;;;;;1.92;100.00;93648.16;5101159;28;20309;-84
2021/12/27 07:27:38;;;;;;;139.88;6.88;;;;;;;1.77;100.00;93651.22;5101042;28;20126;-84
2021/12/27 07:30:05;;;;;;;64.13;5.35;;;;;;;1.77;100.00;93654.59;5100816;28;20031;-85
2021/12/27 07:32:31;;;;;;;86.47;6.20;;;;;;;1.86;100.00;93655.03;5083913;28;20427;-85
2021/12/27 07:34:56;;;;;;;12.52;3.20;;;;;;;2.19;100.00;93656.13;5100707;28;20030;-83
2021/12/27 07:37:22;;;;;;;188.40;10.00;;;;;;;2.15;100.00;93654.22;5083948;28;20115;-83
2021/12/27 07:39:47;;;;;;;71.55;4.80;;;;;;;2.24;100.00;93652.84;5080459;28;20020;-83
2021/12/27 07:42:13;;;;;;;252.52;12.15;;;;;;;1.83;100.00;93653.69;5079951;28;20032;-83
2021/12/27 07:44:38;;;;;;;157.85;9.52;;;;;;;1.82;100.00;93654.69;5080452;28;20054;-83
2021/12/27 07:47:04;;;;;;;167.88;8.90;;;;;;;1.81;100.00;93654.94;5080400;28;20034;-83
2021/12/27 07:49:29;;;;;;;9.32;3.28;;;;;;;2.20;100.00;93656.91;5080247;28;20349;-83
2021/12/27 07:51:55;;;;;;;10.07;2.83;;;;;;;2.39;100.00;93647.16;5078644;28;20039;-83
2021/12/27 07:54:20;;;;;;;256.73;11.90;;;;;;;2.04;100.00;93645.53;5098353;28;20066;-83
2021/12/27 07:56:46;;;;;;;80.53;5.93;;;;;;;2.00;100.00;93647.78;5079746;28;20114;-83
2021/12/27 07:59:11;;;;;;;76.28;6.22;;;;;;;1.85;100.00;93648.28;5079860;28;20028;-83
2021/12/27 08:01:38;;;;;;;201.63;10.35;;;;;;;2.22;100.00;93650.50;5073917;28;20025;-83
2021/12/27 08:04:08;;;;;;;12.40;3.05;;;;;;;2.28;100.00;93651.34;5078770;28;20314;-83
2021/12/27 08:06:34;;;;;;;6.47;3.67;;;;;;;2.51;100.00;93644.50;5060137;28;20306;-82
2021/12/27 08:09:00;;;;;;;212.15;11.38;;;;;;;2.34;100.00;93644.47;5101075;28;20123;-83
2021/12/27 08:11:26;;;;;;;93.38;6.55;;;;;;;2.50;100.00;93637.75;5079858;28;20059;-83
2021/12/27 08:13:52;;;;;;;85.22;8.85;;;;;;;2.75;100.00;93628.84;5074508;28;20020;-83
2021/12/27 08:16:23;;;;;;;5.38;3.10;;;;;;;3.16;100.00;93626.84;5076437;28;20070;-83
2021/12/27 08:18:52;;;;;;;5.68;3.17;;;;;;;3.14;100.00;93621.09;5060587;28;20118;-83
2021/12/27 08:21:19;;;;;;;124.00;7.85;;;;;;;3.29;100.00;93615.34;5076254;28;20040;-83
2021/12/27 08:23:44;;;;;;;75.90;5.07;;;;;;;3.45;100.00;93610.34;5072274;28;20428;-83
2021/12/27 08:26:09;;;;;;;108.20;6.53;;;;;;;3.48;100.00;93610.66;5097762;28;20060;-83
2021/12/27 08:28:35;;;;;;;150.82;8.55;;;;;;;3.60;100.00;93607.94;5079675;28;20036;-83
2021/12/27 08:31:00;;;;;;;196.95;10.57;;;;;;;3.87;100.00;93606.41;5079554;28;20032;-83
2021/12/27 08:33:26;;;;;;;15.13;2.80;;;;;;;3.99;100.00;93612.22;5079171;28;20506;-83
2021/12/27 08:35:51;;;;;;;64.88;4.20;;;;;;;4.19;100.00;93614.25;5097524;28;20085;-83
2021/12/27 08:38:18;;;;;;;220.73;11.35;;;;;;;4.37;100.00;93604.53;5097346;28;20441;-83
2021/12/27 08:40:44;;;;;;;568.88;28.17;;;;;;;4.25;100.00;93609.88;5097437;28;20348;-83
2021/12/27 08:43:09;;;;;;;182.25;10.95;;;;;;;4.42;100.00;93602.00;5078861;28;20329;-83
2021/12/27 08:45:35;;;;;;;169.18;8.60;;;;;;;4.54;100.00;93594.03;5097154;28;20160;-83
2021/12/27 08:48:00;;;;;;;681.47;37.67;;;;;;;4.58;100.00;93596.94;5097340;28;20349;-83
2021/12/27 08:50:25;;;;;;;732.47;37.88;;;;;;;4.70;100.00;93601.94;5079063;28;20105;-83
2021/12/27 08:52:51;;;;;;;8.88;3.03;;;;;;;5.00;100.00;93603.97;5078551;28;20089;-83
2021/12/27 08:55:17;;;;;;;4.47;2.92;;;;;;;5.43;100.00;93608.34;5078960;28;20039;-83
2021/12/27 08:57:43;;;;;;;13.23;3.58;;;;;;;5.59;100.00;93602.16;5097236;28;20081;-83
2021/12/27 09:00:11;;;;;;;11.23;5.43;;;;;;;5.59;100.00;93606.56;5097301;28;20036;-83
2021/12/27 09:02:36;;;;;;;69.32;5.38;;;;;;;5.60;100.00;93601.13;5078476;28;20055;-83
2021/12/27 09:16:19;;;;;;;7.15;4.80;;;;;;;5.91;100.00;93629.06;5112915;27;20708;-85
2021/12/27 09:18:45;;;;;;;5.15;3.28;;;;;;;6.29;100.00;93628.91;5092670;28;20034;-85
2021/12/27 09:21:10;;;;;;;5.85;3.50;;;;;;;6.74;100.00;93627.38;5092702;28;20028;-84
2021/12/27 09:34:50;;;;;;;12.45;8.65;;;;;;;7.19;100.00;93637.22;4691700;22;20063;-83
2021/12/27 09:37:16;;;;;;;3.88;2.75;;;;;;;7.11;100.00;93650.78;5086379;28;20348;-83
2021/12/27 09:39:42;;;;;;;4.60;2.88;;;;;;;6.72;100.00;93642.47;5075404;28;20456;-83
2021/12/27 09:42:07;;;;;;;4.50;2.70;;;;;;;6.69;100.00;93648.19;5092168;28;20032;-83
2021/12/27 09:44:33;;;;;;;5.28;2.92;;;;;;;6.75;100.00;93646.38;5091723;28;20059;-83
2021/12/27 09:46:58;;;;;;;8.10;2.70;;;;;;;6.90;100.00;93638.56;5092173;28;20177;-83
2021/12/27 09:49:29;;;;;;;5.05;3.10;;;;;;;7.19;100.00;93632.81;5092207;28;20039;-83
2021/12/27 09:51:57;;;;;;;8.35;5.07;;;;;;;7.06;100.00;93638.56;5080806;28;20066;-83
2021/12/27 09:54:25;;;;;;;5.47;3.17;;;;;;;6.94;100.00;93641.41;5112313;28;20208;-83
2021/12/27 09:56:50;;;;;;;8.00;4.85;;;;;;;6.85;100.00;93648.19;5095533;28;20436;-83
2021/12/27 09:59:16;;;;;;;22.25;13.88;;;;;;;6.79;100.00;93650.78;5112349;28;20038;-83
2021/12/27 10:01:41;;;;;;;9.57;5.35;;;;;;;7.02;100.00;93659.13;5112281;28;20157;-83
2021/12/27 10:04:07;;;;;;;5.95;3.22;;;;;;;6.95;100.00;93650.78;5112053;28;20038;-83
2021/12/27 10:18:59;;;;;;;41.40;6.15;;;;;;;6.34;100.00;93670.53;5114661;27;20368;-87
2021/12/27 10:21:25;;;;;;;180.77;12.20;;;;;;;6.35;100.00;93665.06;5131092;27;20028;-87
2021/12/27 10:24:28;;;;;;;8.95;5.20;;;;;;;6.31;100.00;93673.66;5096766;28;20046;-87
2021/12/27 10:27:00;;;;;;;27.77;6.37;;;;;;;6.44;100.00;93664.56;5097293;28;20035;-87
2021/12/27 10:29:28;;;;;;;519.80;30.55;;;;;;;5.97;100.00;93667.03;5113647;28;20031;-86
2021/12/27 10:32:07;;;;;;;47.28;12.90;;;;;;;5.80;100.00;93662.81;5147293;27;20054;-86
2021/12/27 10:34:36;;;;;;;54.40;13.85;;;;;;;5.73;100.00;93671.88;5147334;27;20472;-87
2021/12/27 10:37:20;;;;;;;356.17;21.45;;;;;;;5.33;100.00;93661.78;5129626;27;20336;-87
2021/12/27 10:39:50;;;;;;;117.13;14.60;;;;;;;5.45;100.00;93659.03;5126463;28;20051;-86
2021/12/27 10:42:21;;;;;;;85.38;9.75;;;;;;;5.57;100.00;93647.63;5126687;28;20031;-86
2021/12/27 10:44:49;;;;;;;14.20;8.25;;;;;;;5.81;100.00;93650.59;5092677;28;20029;-86
2021/12/27 10:47:26;;;;;;;404.88;21.80;;;;;;;5.17;100.00;93658.34;5126115;28;20444;-89
2021/12/27 10:49:53;;;;;;;142.02;13.13;;;;;;;5.65;100.00;93662.75;5093459;28;20056;-89
2021/12/27 10:52:19;;;;;;;131.95;13.50;;;;;;;5.51;100.00;93646.81;5092694;28;20051;-89
2021/12/27 10:54:44;;;;;;;11.50;7.35;;;;;;;6.21;100.00;93640.59;5109263;28;20109;-86
2021/12/27 10:57:10;;;;;;;24.70;8.50;;;;;;;6.34;100.00;93642.69;5092044;28;20028;-88
2021/12/27 10:59:35;;;;;;;24.00;10.90;;;;;;;6.55;100.00;93634.91;5093966;28;20028;-87
2021/12/27 11:02:13;;;;;;;88.28;12.27;;;;;;;6.57;100.00;93639.88;5126434;28;20318;-87
2021/12/27 11:04:39;;;;;;;805.80;44.15;;;;;;;6.46;100.00;93633.88;5125704;28;20031;-86
2021/12/27 11:07:05;;;;;;;185.45;12.45;;;;;;;6.75;100.00;93641.19;5109056;28;20028;-87
2021/12/27 11:09:32;;;;;;;396.90;23.02;;;;;;;6.73;100.00;93638.81;5093340;28;20028;-86
2021/12/27 11:11:57;;;;;;;173.77;11.77;;;;;;;6.59;100.00;93630.72;5109087;28;20475;-86
2021/12/27 11:14:23;;;;;;;22.95;8.30;;;;;;;6.92;100.00;93626.06;5125862;28;20055;-86
2021/12/27 11:16:49;;;;;;;385.75;21.40;;;;;;;6.35;100.00;93623.44;5075006;28;20501;-87
2021/12/27 11:19:14;;;;;;;111.55;10.70;;;;;;;6.86;100.00;93615.91;5081795;28;20024;-89
2021/12/27 11:21:45;;;;;;;198.15;13.52;;;;;;;6.75;100.00;93625.56;5079508;28;20024;-87
2021/12/27 11:24:11;;;;;;;84.32;10.43;;;;;;;6.57;100.00;93635.41;5096277;28;20024;-89
2021/12/27 11:26:40;;;;;;;19.42;7.97;;;;;;;6.71;100.00;93619.28;5078371;28;20025;-88
2021/12/27 11:29:17;;;;;;;12.00;7.47;;;;;;;6.71;100.00;93614.09;5078455;28;20414;-87
2021/12/27 11:31:44;;;;;;;20.67;7.97;;;;;;;6.92;100.00;93612.25;5064436;28;20122;-88
2021/12/27 11:34:12;;;;;;;15.10;7.80;;;;;;;7.01;100.00;93615.09;5098513;28;20050;-86
2021/12/27 11:36:41;;;;;;;354.85;17.23;;;;;;;6.62;100.00;93611.22;5098362;28;20399;-86
2021/12/27 11:39:29;;;;;;;124.22;11.23;;;;;;;6.71;100.00;93609.66;5098397;28;20032;-89
2021/12/27 11:42:04;;;;;;;281.92;15.88;;;;;;;6.34;100.00;93595.88;5127625;27;20037;-89
2021/12/27 11:44:53;;;;;;;201.75;27.70;;;;;;;6.28;100.00;93593.53;5115878;28;20020;-87
2021/12/27 11:47:23;;;;;;;444.30;25.08;;;;;;;6.22;100.00;93588.28;5131961;27;20024;-87
2021/12/27 11:49:52;;;;;;;265.27;15.05;;;;;;;6.54;100.00;93593.53;5098108;28;20032;-89
2021/12/27 11:52:23;;;;;;;379.77;22.67;;;;;;;6.07;100.00;93588.28;5099076;28;20032;-86
2021/12/27 11:54:54;;;;;;;26.40;6.55;;;;;;;6.06;100.00;93573.72;5132238;27;20115;-86
2021/12/27 11:57:54;;;;;;;21.40;7.40;;;;;;;6.45;100.00;93578.44;5097761;28;20020;-89
2021/12/27 12:00:30;;;;;;;211.52;13.48;;;;;;;6.35;100.00;93566.22;5098954;28;20347;-88
2021/12/27 12:03:19;;;;;;;19.58;7.68;;;;;;;6.61;100.00;93562.81;5114963;27;20477;-88
2021/12/27 12:05:49;;;;;;;158.63;13.75;;;;;;;6.83;100.00;93559.16;5115237;27;20027;-89
2021/12/27 12:08:26;;;;;;;97.03;10.73;;;;;;;7.17;100.00;93561.16;5098660;28;20024;-88
2021/12/27 12:10:58;;;;;;;28.42;8.05;;;;;;;7.43;100.00;93566.28;5097443;28;20039;-86
2021/12/27 12:13:26;;;;;;;39.63;6.38;;;;;;;7.42;100.00;93557.69;5097887;28;20027;-88
2021/12/27 12:16:01;;;;;;;839.92;39.60;;;;;;;6.34;100.00;93541.22;5131982;27;20093;-88
2021/12/27 12:18:31;;;;;;;9.77;5.97;;;;;;;6.76;100.00;93544.56;5097810;28;20047;-88
2021/12/27 12:20:58;;;;;;;34.58;7.80;;;;;;;6.63;100.00;93545.91;5097932;28;20344;-88
2021/12/27 12:23:23;;;;;;;270.40;16.00;;;;;;;6.49;100.00;93537.84;5080689;28;20039;-88
2021/12/27 12:25:58;;;;;;;300.42;16.45;;;;;;;6.35;100.00;93529.78;5081227;28;20024;-88
2021/12/27 12:28:23;;;;;;;180.77;11.23;;;;;;;6.59;100.00;93529.22;5097176;28;20457;-88
2021/12/27 12:30:51;;;;;;;118.88;11.10;;;;;;;6.94;100.00;93532.03;5079821;28;20052;-88
2021/12/27 12:33:29;;;;;;;14.13;7.53;;;;;;;7.32;100.00;93539.50;5097626;28;20115;-88
2021/12/27 12:36:00;;;;;;;16.65;6.97;;;;;;;7.51;100.00;93534.44;5080651;28;20035;-89
2021/12/27 12:38:26;;;;;;;636.88;322.70;;;;;;;7.49;100.00;93534.72;5097053;28;20020;-89
2021/12/27 12:41:06;;;;;;;97.60;32.50;;;;;;;7.43;100.00;93535.78;5098383;28;20365;-88
2021/12/27 12:43:32;;;;;;;87.45;11.30;;;;;;;6.97;100.00;93526.31;5097182;28;20020;-89
2021/12/27 12:45:57;;;;;;;33.92;11.23;;;;;;;7.29;100.00;93524.38;5098097;28;20348;-88
2021/12/27 12:48:27;;;;;;;25.88;9.20;;;;;;;7.29;100.00;93525.16;5097060;28;20028;-86
2021/12/27 12:50:54;;;;;;;39.35;22.58;;;;;;;7.58;100.00;93526.31;5097026;28;20432;-88
2021/12/27 12:53:30;;;;;;;158.60;37.88;;;;;;;7.40;100.00;93522.53;5097224;28;20505;-89
2021/12/27 12:56:07;;;;;;;46.00;8.45;;;;;;;7.62;100.00;93516.94;5096743;28;20028;-88
2021/12/27 12:58:37;;;;;;;552.58;40.25;;;;;;;6.82;100.00;93526.34;5097033;28;20027;-87
2021/12/27 13:01:05;;;;;;;328.73;19.70;;;;;;;6.62;100.00;93533.13;5080318;28;20489;-89
2021/12/27 13:03:31;;;;;;;315.70;19.25;;;;;;;6.69;100.00;93533.66;5080362;28;20071;-89
2021/12/27 13:05:58;;;;;;;221.02;15.05;;;;;;;6.35;100.00;93529.00;5096727;28;20024;-89
2021/12/27 13:08:23;;;;;;;78.43;11.73;;;;;;;6.42;100.00;93531.34;5096489;28;20020;-89
2021/12/27 13:10:51;;;;;;;175.52;12.35;;;;;;;6.29;100.00;93528.22;5098152;28;20042;-89
2021/12/27 13:13:18;;;;;;;50.83;10.00;;;;;;;6.68;100.00;93518.28;5096648;28;20020;-89
2021/12/27 13:15:58;;;;;;;40.88;9.30;;;;;;;6.57;100.00;93520.91;5079568;28;20031;-90
2021/12/27 13:18:29;;;;;;;142.07;12.10;;;;;;;6.47;100.00;93515.72;5094980;28;20027;-89
2021/12/27 13:21:09;;;;;;;299.90;26.13;;;;;;;6.52;100.00;93520.91;5061522;28;20413;-88
2021/12/27 13:23:38;;;;;;;39.83;9.65;;;;;;;6.59;100.00;93518.81;5109724;28;20020;-88
2021/12/27 13:26:08;;;;;;;15.88;8.13;;;;;;;6.67;100.00;93520.13;5076297;28;20044;-88
2021/12/27 13:28:42;;;;;;;474.13;27.42;;;;;;;6.02;100.00;93520.66;5076261;28;20069;-89
2021/12/27 13:31:11;;;;;;;139.60;13.30;;;;;;;5.92;100.00;93516.22;5107875;28;20123;-89
2021/12/27 13:33:40;;;;;;;416.17;26.73;;;;;;;5.78;100.00;93508.91;5075966;28;20380;-88
2021/12/27 13:36:36;;;;;;;49.38;10.45;;;;;;;6.06;100.00;93509.50;5076869;28;20034;-88
2021/12/27 13:39:06;;;;;;;878.88;50.17;;;;;;;5.54;100.00;93508.63;5078875;28;20449;-90
2021/12/27 13:41:34;;;;;;;541.33;27.23;;;;;;;5.50;100.00;93510.13;5076889;28;20032;-88
2021/12/27 13:44:02;;;;;;;150.57;15.77;;;;;;;5.82;100.00;93519.59;5058999;28;20076;-89
2021/12/27 13:46:30;;;;;;;820.10;44.33;;;;;;;5.64;100.00;93520.84;5075750;28;20066;-88
2021/12/27 13:48:57;;;;;;;505.88;31.50;;;;;;;5.69;100.00;93520.84;5076037;28;20089;-89
2021/12/27 13:51:26;;;;;;;324.27;26.77;;;;;;;5.88;100.00;93523.75;5093077;28;20436;-89
2021/12/27 13:54:02;;;;;;;28.02;12.20;;;;;;;5.99;100.00;93521.94;5112809;28;20024;-86
2021/12/27 13:56:33;;;;;;;300.80;19.92;;;;;;;5.93;100.00;93517.78;5078977;28;20028;-90
2021/12/27 13:59:10;;;;;;;40.92;9.27;;;;;;;6.03;100.00;93515.22;5112834;28;20455;-90
2021/12/27 14:01:37;;;;;;;63.95;9.55;;;;;;;6.11;100.00;93521.72;5095502;28;20027;-90
2021/12/27 14:04:16;;;;;;;197.57;13.32;;;;;;;6.10;100.00;93525.38;5095502;28;20036;-90
2021/12/27 14:06:43;;;;;;;358.00;23.70;;;;;;;5.86;100.00;93520.63;5112967;28;20059;-90
2021/12/27 14:09:09;;;;;;;189.18;14.48;;;;;;;6.10;100.00;93533.16;5098335;28;20039;-90
2021/12/27 14:12:06;;;;;;;48.60;11.02;;;;;;;6.17;100.00;93522.47;5075416;28;20025;-90
2021/12/27 14:14:43;;;;;;;18.02;7.90;;;;;;;6.22;100.00;93519.91;5076406;28;20037;-90
2021/12/27 14:17:09;;;;;;;122.85;11.55;;;;;;;5.82;100.00;93524.00;5058601;28;20547;-90
2021/12/27 14:19:36;;;;;;;86.40;12.63;;;;;;;5.92;100.00;93521.41;5090894;28;20042;-90
2021/12/27 14:22:07;;;;;;;97.05;11.25;;;;;;;5.99;100.00;93532.31;5078892;28;20126;-90
2021/12/27 14:24:43;;;;;;;713.20;42.67;;;;;;;5.90;100.00;93529.47;5096389;28;20504;-89
2021/12/27 14:27:17;;;;;;;550.80;29.30;;;;;;;5.55;100.00;93532.75;5099145;28;20024;-90
2021/12/27 14:29:42;;;;;;;48.08;9.05;;;;;;;5.82;100.00;93526.59;5095281;28;20027;-89
2021/12/27 14:32:07;;;;;;;281.25;21.75;;;;;;;5.85;100.00;93521.66;5095568;28;20028;-90
2021/12/27 14:34:50;;;;;;;296.00;18.17;;;;;;;5.80;100.00;93521.63;5095551;28;20028;-90
2021/12/27 14:37:16;;;;;;;189.55;13.88;;;;;;;5.78;100.00;93527.09;5095347;28;20500;-90
2021/12/27 14:39:43;;;;;;;667.05;34.78;;;;;;;5.59;100.00;93518.22;5078522;28;20024;-90
2021/12/27 14:42:10;;;;;;;532.83;32.28;;;;;;;5.24;100.00;93521.25;5075103;28;20025;-90
2021/12/27 14:44:51;;;;;;;18.33;9.60;;;;;;;5.54;100.00;93520.81;5092213;28;20032;-91
2021/12/27 14:47:19;;;;;;;310.27;19.48;;;;;;;5.57;100.00;93517.69;5091887;28;20433;-90
2021/12/27 14:49:45;;;;;;;148.65;13.60;;;;;;;5.67;100.00;93509.94;5109527;28;20144;-89
2021/12/27 14:52:11;;;;;;;659.70;40.30;;;;;;;5.30;100.00;93500.47;5112212;28;20080;-89
2021/12/27 14:54:37;;;;;;;97.80;11.25;;;;;;;5.47;100.00;93511.44;5098337;28;20039;-89
2021/12/27 14:57:03;;;;;;;59.92;8.70;;;;;;;5.54;100.00;93513.81;5133241;27;20024;-86
2021/12/27 14:59:29;;;;;;;198.10;13.30;;;;;;;5.44;100.00;93511.19;5098841;28;20032;-89
2021/12/27 15:01:54;;;;;;;714.97;41.55;;;;;;;5.21;100.00;93507.97;5099341;28;20031;-89
2021/12/27 15:04:19;;;;;;;398.00;27.77;;;;;;;5.22;100.00;93499.94;5082411;28;20081;-87
2021/12/27 15:06:45;;;;;;;75.65;11.45;;;;;;;5.30;100.00;93501.25;5133192;27;20054;-89
2021/12/27 15:09:10;;;;;;;672.50;40.08;;;;;;;4.95;100.00;93495.69;5098882;28;20035;-89
2021/12/27 15:11:36;;;;;;;971.78;59.45;;;;;;;4.85;100.00;93494.84;5082237;28;20020;-88
2021/12/27 15:14:01;;;;;;;526.67;27.67;;;;;;;5.01;100.00;93493.09;5100152;28;20411;-89
2021/12/27 15:16:27;;;;;;;351.55;24.08;;;;;;;4.77;100.00;93488.31;5098485;28;20019;-88
2021/12/27 15:18:53;;;;;;;637.47;39.53;;;;;;;4.53;100.00;93499.88;5099009;28;20335;-89